首页
METAR-TAF:

METAR-TAF

机场 :

溫莎國際機場

温莎, 安大略省, 加拿大

纬度: 42-16N, 经度: 082-58W, 海拔: 190米

当前天气观测

该预报发布于36分钟前的09:00 UTC
风速7节,风向西转西北
温度 19°C
湿度 78%
气压 1012 hPa
能見度: 14.5公里
散云层高于6600英尺
阴天层高于9900英尺
小雨

METAR: CYQG 010900Z AUTO 29007KT 9SM -RA SCT066 OVC099 19/15 A2987 RMK SLP113 DENSITY ALT 1300FT

时间: 05:36 (09:36 UTC)

预报

该预报发布于3小时和54分钟前的05:42 UTC
预报有效从01日的 06点(UTC)到 02日的 06点(UTC)
风速6节,风向西转西北
能見度: 10公里
少量云层高于5000英尺
多云层高于13000英尺
从 01日的 0900点(UTC)
风速8节,风向西北
能見度: 10公里
阴天层高于3000英尺
短暂存在
从 01日的 09点(UTC)到 01日的 12点(UTC)
能見度: 10公里
小阵雨
几率 40%
从 01日的 09点(UTC)到 01日的 12点(UTC)
能見度: 3.2公里
多云层高于1200英尺
阴天层高于3000英尺, 积雨云.
雷暴, 雨, 轻雾
从 01日的 1200点(UTC)
风速12节,风向西北
能見度: 10公里
多云层高于6000英尺
几率 30%
从 01日的 15点(UTC)到 01日的 20点(UTC)
风速15节,风向多变,有时为25节阵风
多云层高于900英尺
阴天层高于2000英尺, 积雨云.
雷暴, 雨, 轻雾
从 01日的 2000点(UTC)
风速12节,风向西北
能見度: 10公里
多云层高于4000英尺
小阵雨
从 02日的 0200点(UTC)
风速10节,风向,有时为20节阵风
能見度: 10公里
散云层高于2000英尺

TAF: CYQG 010542Z 0106/0206 29006KT P6SM FEW050 BKN130 FM010900 32008KT P6SM OVC030 TEMPO 0109/0112 P6SM -SHRA PROB40 0109/0112 2SM TSRA BR BKN012 OVC030CB FM011200 32012KT P6SM BKN060 PROB30 0115/0120 VRB15G25KT 11/2SM TSRA BR BKN009 OVC020CB FM012000 32012KT P6SM -SHRA BKN040 FM020200 36010G20KT P6SM SCT020 RMK FCST BASED ON AUTO OBS. NXT FCST BY 011200Z

超过4000个机场的气象观测和天气预报(METAR&TAF报告)。

可查询的气象台以黄色和红色小点在地图上表示。

将鼠标移到小点上方,可查看气象台名称。

然后点击查看天气观测和预报。

如需切换地图:点击带黑十字的绿色按钮放大地图;点击带横线的绿色按钮缩小地图;或者点击绿色箭头查看邻近地区的地图。


METAR-TAF: